Time;durP1;ratioP1;P1;durP2;ratioP2;P2;SDS_P1;SDS_P2;PMS_P1;PMS_P2;Temp;Humidity;BMP_temperature;BMP_pressure;BME280_temperature;BME280_humidity;BME280_pressure;Samples;Min_cycle;Max_cycle;Signal;HPM_P1;HPM_P2
2022/10/20 00:01:11;;;;;;;6.78;0.70;;;;;;;5.31;53.94;102311.97;5039051;28;20044;-71
2022/10/20 00:03:37;;;;;;;3.83;0.68;;;;;;;5.33;53.81;102305.06;5037297;28;20048;-70
2022/10/20 00:06:14;;;;;;;2.97;0.40;;;;;;;5.36;53.58;102307.66;5038626;28;20037;-70
2022/10/20 00:08:40;;;;;;;3.42;1.20;;;;;;;5.37;53.87;102307.69;5008735;28;20168;-72
2022/10/20 00:11:07;;;;;;;2.42;0.50;;;;;;;5.36;53.69;102305.94;5001056;28;20059;-72
2022/10/20 00:13:33;;;;;;;2.15;0.50;;;;;;;5.37;54.02;102299.91;5037129;28;20056;-70
2022/10/20 00:15:59;;;;;;;2.80;0.80;;;;;;;5.30;53.99;102295.56;5020398;28;20460;-72
2022/10/20 00:18:26;;;;;;;1.70;0.70;;;;;;;5.40;53.51;102296.47;5037433;28;20037;-73
2022/10/20 00:20:52;;;;;;;3.03;1.25;;;;;;;5.46;53.63;102301.69;5036920;28;20033;-72
2022/10/20 00:23:17;;;;;;;3.10;0.43;;;;;;;5.35;53.65;102295.59;5038195;28;20109;-72
2022/10/20 00:25:43;;;;;;;2.38;0.60;;;;;;;5.29;54.09;102293.81;5017713;28;20052;-72
2022/10/20 00:28:08;;;;;;;3.13;0.50;;;;;;;5.41;53.14;102283.50;5019445;28;20068;-72
2022/10/20 00:30:34;;;;;;;6.20;0.85;;;;;;;5.25;53.83;102292.91;5037387;28;20485;-72
2022/10/20 00:33:01;;;;;;;4.72;1.13;;;;;;;5.32;53.57;102280.84;5019160;28;20365;-70
2022/10/20 00:35:28;;;;;;;2.55;0.73;;;;;;;5.35;53.47;102277.44;5035812;28;20032;-70
2022/10/20 00:37:53;;;;;;;2.22;0.55;;;;;;;5.22;53.80;102277.34;5002321;28;20131;-70
2022/10/20 00:40:18;;;;;;;1.70;0.60;;;;;;;5.25;53.81;102266.13;5020871;28;20132;-70
2022/10/20 00:42:45;;;;;;;3.33;1.33;;;;;;;5.24;54.17;102267.88;5016984;28;20108;-70
2022/10/20 00:45:12;;;;;;;3.38;0.85;;;;;;;5.37;52.95;102267.91;5010771;28;20032;-71
2022/10/20 00:47:43;;;;;;;5.45;0.85;;;;;;;5.23;53.95;102262.66;5034632;28;20124;-70
2022/10/20 00:50:22;;;;;;;3.40;0.98;;;;;;;5.19;53.65;102248.84;5038738;28;20390;-70
2022/10/20 00:52:48;;;;;;;5.07;0.70;;;;;;;5.15;53.45;102249.69;5035659;28;20102;-71
2022/10/20 00:55:19;;;;;;;2.08;0.88;;;;;;;5.07;54.38;102246.19;5012942;28;20033;-71
2022/10/20 00:57:48;;;;;;;2.15;0.80;;;;;;;5.01;53.93;102238.38;5006622;28;20448;-71
2022/10/20 01:00:14;;;;;;;1.83;0.85;;;;;;;5.09;53.49;102223.72;5036412;28;20037;-70
2022/10/20 01:02:40;;;;;;;6.97;1.00;;;;;;;5.11;53.22;102232.38;5024943;28;20583;-71
2022/10/20 01:05:06;;;;;;;2.35;0.80;;;;;;;5.07;53.34;102220.25;5038701;28;20043;-71
2022/10/20 01:07:32;;;;;;;2.38;0.77;;;;;;;4.91;54.39;102216.72;5016966;28;20080;-70
2022/10/20 01:09:58;;;;;;;6.95;1.13;;;;;;;4.69;55.02;102207.09;5038479;28;20047;-71
2022/10/20 01:12:45;;;;;;;1.08;0.70;;;;;;;4.88;54.51;102208.06;5019216;28;20293;-71
2022/10/20 01:15:22;;;;;;;3.33;0.85;;;;;;;4.96;53.81;102203.81;5038294;28;20120;-71
2022/10/20 01:17:47;;;;;;;3.40;1.95;;;;;;;4.94;54.32;102202.91;5002587;28;20040;-70
2022/10/20 01:20:49;;;;;;;6.68;1.00;;;;;;;5.00;53.95;102198.63;5020103;28;20040;-71
2022/10/20 01:23:24;;;;;;;1.90;0.82;;;;;;;4.89;54.08;102199.44;4996457;28;20049;-71
2022/10/20 01:26:31;;;;;;;8.82;1.13;;;;;;;4.94;53.84;102192.56;5037297;28;20283;-71
2022/10/20 01:29:12;;;;;;;4.65;1.65;;;;;;;4.84;54.08;102189.91;5036401;28;20033;-70
2022/10/20 01:32:05;;;;;;;4.72;0.65;;;;;;;5.03;53.67;102182.22;5033723;28;20029;-71
2022/10/20 01:34:40;;;;;;;5.47;0.95;;;;;;;4.88;54.01;102176.97;5024562;28;20029;-71
2022/10/20 01:37:24;;;;;;;2.83;1.63;;;;;;;4.76;54.29;102172.56;5037575;28;20045;-73
2022/10/20 01:39:57;;;;;;;6.45;1.10;;;;;;;4.80;54.26;102174.34;5036101;28;20033;-71
2022/10/20 01:42:25;;;;;;;3.55;1.35;;;;;;;4.96;53.61;102170.97;5036776;28;20135;-71
2022/10/20 01:44:55;;;;;;;3.58;0.95;;;;;;;4.87;53.95;102165.72;5036212;28;20036;-71
2022/10/20 01:47:24;;;;;;;3.63;1.08;;;;;;;4.75;54.24;102161.34;5037529;28;20091;-71
2022/10/20 01:49:51;;;;;;;8.38;1.08;;;;;;;4.89;53.90;102160.59;5045220;28;20037;-71
2022/10/20 01:52:17;;;;;;;5.28;1.05;;;;;;;4.73;54.30;102152.72;5048376;28;20430;-70
2022/10/20 01:54:43;;;;;;;3.33;0.68;;;;;;;4.95;53.51;102151.13;5028185;28;20037;-70
2022/10/20 01:57:34;;;;;;;5.30;1.23;;;;;;;4.80;54.19;102135.47;5040080;28;20058;-70
2022/10/20 02:00:05;;;;;;;13.55;2.15;;;;;;;4.84;54.09;102134.63;5039337;28;20524;-71
2022/10/20 02:02:37;;;;;;;4.68;1.00;;;;;;;4.86;53.91;102126.88;5006703;28;20387;-71
2022/10/20 02:05:09;;;;;;;5.05;1.13;;;;;;;4.68;54.46;102131.13;5001256;28;20417;-71
2022/10/20 02:07:34;;;;;;;6.03;1.00;;;;;;;4.73;54.06;102115.59;5007336;28;20137;-72
2022/10/20 02:10:21;;;;;;;4.70;0.90;;;;;;;4.93;53.48;102123.47;5037177;28;20447;-70
2022/10/20 02:12:51;;;;;;;3.38;1.63;;;;;;;4.87;53.14;102118.22;5020001;28;20056;-71
2022/10/20 02:15:22;;;;;;;1.83;0.75;;;;;;;4.81;53.71;102108.69;5023350;28;20132;-71
2022/10/20 02:17:54;;;;;;;4.32;1.02;;;;;;;4.95;53.26;102103.63;5038526;28;20136;-71
2022/10/20 02:20:20;;;;;;;3.67;0.90;;;;;;;5.06;52.64;102099.34;5042132;28;20257;-71
2022/10/20 02:22:46;;;;;;;4.82;1.88;;;;;;;5.13;52.55;102101.06;5038304;28;20415;-72
2022/10/20 02:25:12;;;;;;;2.55;0.77;;;;;;;5.07;52.68;102105.38;5041914;28;20033;-71
2022/10/20 02:27:41;;;;;;;3.33;1.25;;;;;;;5.01;52.81;102101.03;5020086;28;20378;-72
2022/10/20 02:30:10;;;;;;;2.88;0.90;;;;;;;4.96;53.11;102102.75;5041381;28;20056;-71
2022/10/20 02:32:39;;;;;;;5.13;1.17;;;;;;;4.90;52.97;102094.94;5035931;28;20541;-72
2022/10/20 02:35:07;;;;;;;4.80;0.88;;;;;;;4.93;53.07;102098.44;5015372;28;20041;-71
2022/10/20 02:37:32;;;;;;;2.33;0.77;;;;;;;4.95;52.69;102090.66;5035669;28;20056;-72
2022/10/20 02:39:58;;;;;;;2.13;0.93;;;;;;;4.55;53.83;102093.94;5039734;28;20044;-70
2022/10/20 02:42:23;;;;;;;6.47;1.15;;;;;;;4.75;53.21;102083.66;5021825;28;20062;-70
2022/10/20 02:44:49;;;;;;;4.07;0.57;;;;;;;4.81;52.97;102083.69;5021672;28;20510;-72
2022/10/20 02:47:14;;;;;;;2.50;0.77;;;;;;;4.95;52.62;102072.53;5022873;28;20060;-70
2022/10/20 02:49:40;;;;;;;3.33;0.70;;;;;;;4.86;52.75;102073.34;5038080;28;20029;-73
2022/10/20 02:52:05;;;;;;;8.23;0.90;;;;;;;4.75;53.20;102060.34;5018830;28;20068;-73
2022/10/20 02:54:30;;;;;;;1.42;0.80;;;;;;;4.67;53.57;102067.22;5038056;28;20040;-71
2022/10/20 02:56:56;;;;;;;1.67;0.57;;;;;;;4.84;52.91;102068.13;5022271;28;20091;-70
2022/10/20 02:59:21;;;;;;;2.90;0.50;;;;;;;4.99;52.62;102067.34;5021867;28;20112;-71
2022/10/20 03:01:47;;;;;;;1.90;0.65;;;;;;;4.83;52.81;102060.34;5037848;28;20433;-70
2022/10/20 03:04:13;;;;;;;2.50;0.73;;;;;;;4.72;53.34;102057.75;5021355;28;20447;-71
2022/10/20 03:06:41;;;;;;;2.00;0.68;;;;;;;4.66;53.30;102049.94;5037789;28;20040;-70
2022/10/20 03:09:07;;;;;;;4.35;0.52;;;;;;;4.72;53.23;102046.50;5040483;28;20481;-71
2022/10/20 03:11:32;;;;;;;5.75;0.70;;;;;;;4.67;53.24;102043.91;5038015;28;20048;-71
2022/10/20 03:13:58;;;;;;;5.80;1.13;;;;;;;4.49;54.08;102054.19;5022513;28;20514;-70
2022/10/20 03:16:23;;;;;;;6.95;1.15;;;;;;;4.59;53.79;102051.66;5004758;28;20100;-71
2022/10/20 03:18:49;;;;;;;5.15;0.95;;;;;;;4.79;52.93;102053.47;5038469;28;20041;-71
2022/10/20 03:21:14;;;;;;;4.75;0.77;;;;;;;4.66;53.19;102042.19;5039717;28;20025;-70
2022/10/20 03:23:39;;;;;;;5.00;1.20;;;;;;;4.59;53.58;102030.09;5038988;28;20052;-71
2022/10/20 03:26:07;;;;;;;3.88;1.00;;;;;;;4.77;53.01;102026.69;5040109;28;20033;-71
2022/10/20 03:28:33;;;;;;;1.42;1.00;;;;;;;4.62;53.50;102030.09;5011129;28;20099;-71
2022/10/20 03:30:58;;;;;;;2.70;1.00;;;;;;;4.61;53.66;102039.59;5039550;28;20061;-71
2022/10/20 03:33:24;;;;;;;4.05;1.02;;;;;;;4.70;53.25;102027.50;5020009;28;20586;-70
2022/10/20 03:35:49;;;;;;;4.22;1.13;;;;;;;4.41;54.10;102030.88;5039360;28;20516;-71
2022/10/20 03:38:16;;;;;;;1.20;0.85;;;;;;;4.35;54.63;102029.13;5020359;28;20089;-70
2022/10/20 03:40:41;;;;;;;3.55;1.67;;;;;;;4.36;54.28;102020.50;5038805;28;20048;-71
2022/10/20 03:43:07;;;;;;;3.80;1.15;;;;;;;4.32;54.13;102016.16;5020281;28;20088;-73
2022/10/20 03:45:32;;;;;;;3.78;1.27;;;;;;;4.36;53.97;102010.16;5020517;28;20298;-71
2022/10/20 03:47:58;;;;;;;2.25;1.02;;;;;;;4.28;54.35;101998.03;5038097;28;20045;-70
2022/10/20 03:50:23;;;;;;;5.35;1.45;;;;;;;4.15;54.33;101997.09;5021796;28;20298;-71
2022/10/20 03:52:49;;;;;;;5.80;0.95;;;;;;;4.21;54.24;102003.16;5019368;28;20071;-71
2022/10/20 03:55:16;;;;;;;8.15;1.45;;;;;;;4.05;54.65;102005.66;5039978;28;20464;-73
2022/10/20 03:57:41;;;;;;;3.38;1.13;;;;;;;4.17;54.32;101988.50;5036027;28;20040;-71
2022/10/20 04:00:08;;;;;;;4.82;1.40;;;;;;;4.28;54.21;101974.75;5039236;28;20230;-73
2022/10/20 04:02:44;;;;;;;2.97;1.10;;;;;;;4.07;54.53;101978.09;5001772;28;20526;-71
2022/10/20 04:05:16;;;;;;;5.20;1.60;;;;;;;4.13;54.37;101965.19;5021445;28;20565;-71
2022/10/20 04:07:42;;;;;;;5.10;1.38;;;;;;;3.93;55.21;101965.09;5019300;28;20043;-70
2022/10/20 04:10:09;;;;;;;3.65;1.20;;;;;;;4.09;54.40;101955.66;5005493;28;20037;-71
2022/10/20 04:12:34;;;;;;;2.28;1.40;;;;;;;3.98;54.80;101948.75;5034682;28;20604;-70
2022/10/20 04:15:00;;;;;;;3.30;1.30;;;;;;;4.05;54.73;101948.75;5017150;28;20623;-73
2022/10/20 04:17:26;;;;;;;4.32;1.48;;;;;;;4.22;54.09;101949.69;5020228;28;20033;-73
2022/10/20 04:19:51;;;;;;;3.58;1.30;;;;;;;4.04;54.82;101936.69;5037141;28;20051;-72
2022/10/20 04:22:17;;;;;;;5.50;1.35;;;;;;;3.84;55.35;101950.38;5038648;28;20132;-71
2022/10/20 04:24:42;;;;;;;4.60;1.33;;;;;;;3.98;54.44;101935.81;5002466;28;20037;-72
2022/10/20 04:27:07;;;;;;;3.40;2.10;;;;;;;3.93;54.87;101932.31;5021552;28;20047;-71
2022/10/20 04:29:33;;;;;;;4.25;1.67;;;;;;;4.00;54.88;101926.31;5037136;28;20055;-71
2022/10/20 04:31:59;;;;;;;3.50;1.27;;;;;;;3.97;54.86;101915.09;5020878;28;20053;-70
2022/10/20 04:34:24;;;;;;;4.97;1.60;;;;;;;3.87;55.50;101910.72;5020298;28;20040;-71
2022/10/20 04:36:49;;;;;;;7.40;1.05;;;;;;;4.08;54.64;101902.22;5021862;28;20503;-71
2022/10/20 04:39:15;;;;;;;4.38;1.48;;;;;;;4.09;54.46;101903.91;5020900;28;20443;-71
2022/10/20 04:41:41;;;;;;;2.80;1.63;;;;;;;4.01;54.73;101891.84;5018347;28;20033;-71
2022/10/20 04:44:06;;;;;;;4.28;1.58;;;;;;;4.01;54.60;101889.25;5022037;28;20604;-71
2022/10/20 04:46:32;;;;;;;2.47;1.73;;;;;;;3.95;54.86;101896.13;5036397;28;20068;-71
2022/10/20 04:48:57;;;;;;;2.38;1.58;;;;;;;4.15;54.39;101894.47;5038383;28;20041;-73
2022/10/20 04:51:23;;;;;;;8.98;2.13;;;;;;;4.01;54.96;101896.16;5019628;28;20178;-70
2022/10/20 04:53:49;;;;;;;2.83;1.73;;;;;;;3.91;55.14;101902.13;5018399;28;20072;-71
2022/10/20 04:56:19;;;;;;;5.82;1.73;;;;;;;3.93;54.77;101890.94;5036869;28;20139;-70
2022/10/20 04:58:48;;;;;;;15.18;2.85;;;;;;;4.01;54.66;101883.22;5035991;28;20395;-70
2022/10/20 05:01:14;;;;;;;4.30;2.05;;;;;;;3.89;54.84;101881.41;5038405;28;20044;-71
2022/10/20 05:03:39;;;;;;;5.45;2.15;;;;;;;3.88;55.06;101882.28;5036234;28;20037;-70
2022/10/20 05:06:12;;;;;;;5.47;1.63;;;;;;;3.99;54.75;101880.63;5020259;28;20547;-71
2022/10/20 05:08:38;;;;;;;6.07;2.63;;;;;;;3.89;55.14;101876.25;5035493;28;20489;-70
2022/10/20 05:11:05;;;;;;;5.28;2.83;;;;;;;3.90;54.77;101872.81;5038379;28;20198;-73
2022/10/20 05:13:30;;;;;;;5.10;2.17;;;;;;;3.96;54.75;101867.69;5017544;28;20064;-72
2022/10/20 05:15:56;;;;;;;4.00;1.85;;;;;;;3.96;54.81;101869.38;5020251;28;20029;-71
2022/10/20 05:18:21;;;;;;;2.80;1.73;;;;;;;3.83;54.93;101868.50;5038069;28;20398;-70
2022/10/20 05:20:46;;;;;;;5.03;1.35;;;;;;;3.89;54.98;101849.53;5035713;28;20525;-71
2022/10/20 05:23:12;;;;;;;5.32;2.30;;;;;;;3.93;54.64;101849.53;5036795;28;20325;-71
2022/10/20 05:25:38;;;;;;;3.10;1.55;;;;;;;3.85;54.80;101859.00;5036583;28;20591;-71
2022/10/20 05:28:05;;;;;;;9.52;2.03;;;;;;;4.01;54.06;101840.09;5036425;28;20047;-70
2022/10/20 05:30:33;;;;;;;7.28;1.70;;;;;;;3.69;55.64;101846.84;5009161;28;20451;-70
2022/10/20 05:32:59;;;;;;;4.03;1.50;;;;;;;3.81;55.22;101844.34;5036303;28;20049;-71
2022/10/20 05:35:24;;;;;;;3.47;2.03;;;;;;;3.74;55.37;101835.69;5019975;28;20167;-71
2022/10/20 05:37:49;;;;;;;2.35;1.65;;;;;;;3.76;55.42;101838.25;5016372;28;20120;-70
2022/10/20 05:40:15;;;;;;;3.75;1.73;;;;;;;3.70;55.36;101838.25;5019836;28;20045;-71
2022/10/20 05:42:40;;;;;;;4.05;2.20;;;;;;;3.80;55.30;101829.66;5034291;28;20060;-71
2022/10/20 05:45:07;;;;;;;4.85;2.00;;;;;;;3.54;55.99;101822.69;5020815;28;20079;-70
2022/10/20 05:47:33;;;;;;;6.65;2.30;;;;;;;3.78;55.33;101821.03;5019431;28;20094;-71
2022/10/20 05:49:58;;;;;;;2.13;1.05;;;;;;;3.79;55.23;101827.94;5041422;28;20033;-70
2022/10/20 05:52:24;;;;;;;3.10;1.58;;;;;;;3.85;55.04;101822.81;5030637;28;20540;-70
2022/10/20 05:54:51;;;;;;;5.15;2.00;;;;;;;3.68;55.13;101830.50;5020372;28;20032;-71
2022/10/20 05:57:17;;;;;;;4.57;2.05;;;;;;;3.85;54.68;101830.56;5022292;28;20064;-71
2022/10/20 05:59:42;;;;;;;2.35;1.77;;;;;;;3.72;55.05;101841.72;5038320;28;20340;-71
2022/10/20 06:02:11;;;;;;;3.30;1.75;;;;;;;3.86;54.80;101834.88;5022373;28;20048;-71
2022/10/20 06:04:37;;;;;;;4.15;2.33;;;;;;;3.77;54.94;101835.69;5037778;28;20386;-71
2022/10/20 06:07:04;;;;;;;6.72;1.90;;;;;;;3.90;54.51;101830.59;5040263;28;20060;-72
2022/10/20 06:09:31;;;;;;;5.72;1.83;;;;;;;3.83;54.76;101824.53;5019103;28;20039;-71
2022/10/20 06:11:57;;;;;;;8.77;2.35;;;;;;;3.87;54.25;101822.78;5039669;28;20249;-73
2022/10/20 06:14:24;;;;;;;3.63;2.20;;;;;;;3.83;54.80;101824.53;5021773;28;20048;-71
2022/10/20 06:16:54;;;;;;;6.10;2.17;;;;;;;3.89;54.40;101823.66;5037547;28;20120;-72
2022/10/20 06:19:20;;;;;;;3.95;2.15;;;;;;;3.90;54.54;101821.09;5010802;28;131090;-71
2022/10/20 06:21:45;;;;;;;3.72;2.28;;;;;;;4.02;54.44;101815.94;5011310;28;20073;-71
2022/10/20 06:24:11;;;;;;;3.20;2.10;;;;;;;3.95;54.41;101806.44;5041741;28;20059;-70
2022/10/20 06:26:37;;;;;;;7.07;2.15;;;;;;;4.01;54.16;101816.81;5021388;28;20113;-71
2022/10/20 06:29:09;;;;;;;5.38;2.22;;;;;;;3.83;54.76;101809.00;5041474;28;20044;-70
2022/10/20 06:31:38;;;;;;;6.65;1.58;;;;;;;4.05;54.53;101797.00;5039014;28;20099;-72
2022/10/20 06:34:06;;;;;;;8.20;2.03;;;;;;;4.24;53.50;101804.78;5040906;28;20078;-72
2022/10/20 06:36:36;;;;;;;3.88;1.70;;;;;;;4.16;53.47;101790.13;5022649;28;20409;-73
2022/10/20 06:39:04;;;;;;;4.90;1.58;;;;;;;4.10;54.14;101786.66;5041500;28;20044;-73
2022/10/20 06:41:29;;;;;;;4.00;1.60;;;;;;;4.31;53.65;101802.19;5022076;28;20067;-71
2022/10/20 06:43:58;;;;;;;3.78;1.60;;;;;;;3.92;54.47;101792.66;5025113;28;20507;-73
2022/10/20 06:46:25;;;;;;;3.47;1.90;;;;;;;4.08;54.25;101793.53;5014928;28;20067;-71
2022/10/20 06:48:51;;;;;;;4.28;1.88;;;;;;;4.23;53.52;101783.22;5046911;28;20045;-72
2022/10/20 06:51:21;;;;;;;5.82;2.40;;;;;;;4.25;53.76;101772.84;5025892;28;20457;-72
2022/10/20 06:53:48;;;;;;;3.38;1.83;;;;;;;4.24;53.42;101774.59;5011533;28;20041;-71
2022/10/20 06:56:17;;;;;;;5.13;2.15;;;;;;;4.34;53.53;101768.56;5040808;28;20032;-71
2022/10/20 06:58:44;;;;;;;2.13;1.67;;;;;;;4.71;52.55;101778.03;5021308;28;20513;-71
2022/10/20 07:01:16;;;;;;;4.47;1.17;;;;;;;4.52;52.83;101769.41;5022731;28;20036;-71
2022/10/20 07:03:44;;;;;;;6.75;2.13;;;;;;;4.52;52.63;101767.69;5011491;28;20148;-74
2022/10/20 07:06:13;;;;;;;3.45;1.98;;;;;;;4.52;52.62;101774.56;5008651;28;20037;-73
2022/10/20 07:08:38;;;;;;;2.47;1.48;;;;;;;4.55;52.65;101761.66;5039894;28;20064;-73
2022/10/20 07:11:07;;;;;;;5.57;2.50;;;;;;;4.76;52.37;101748.66;5041647;28;20039;-72
2022/10/20 07:13:34;;;;;;;4.57;2.03;;;;;;;4.66;52.18;101735.75;5039520;28;20073;-72
2022/10/20 07:16:00;;;;;;;3.28;1.88;;;;;;;4.86;51.89;101713.25;5013090;28;20041;-71
2022/10/20 07:18:27;;;;;;;3.58;1.60;;;;;;;4.97;51.53;101713.25;5021999;28;20178;-73
2022/10/20 07:21:01;;;;;;;3.92;1.70;;;;;;;5.11;51.20;101703.69;5020229;28;20046;-70
2022/10/20 07:23:28;;;;;;;4.50;1.85;;;;;;;5.20;51.04;101711.44;5040574;28;20198;-73
2022/10/20 07:26:09;;;;;;;2.78;1.50;;;;;;;5.96;49.52;101711.88;5039223;28;20039;-73
2022/10/20 07:28:35;;;;;;;3.97;1.70;;;;;;;6.41;47.99;101715.00;5037919;28;20059;-71
2022/10/20 07:31:03;;;;;;;3.10;1.48;;;;;;;6.85;46.55;101710.25;5040344;28;20037;-71
2022/10/20 07:33:29;;;;;;;4.30;1.20;;;;;;;7.14;45.60;101702.09;5012132;28;20659;-71
2022/10/20 07:35:54;;;;;;;2.50;1.42;;;;;;;7.13;45.62;101700.34;5021817;28;20049;-71
2022/10/20 07:38:20;;;;;;;2.35;1.23;;;;;;;7.22;45.56;101708.06;5039755;28;20054;-71
2022/10/20 07:40:45;;;;;;;5.97;1.50;;;;;;;6.93;46.11;101691.94;5021009;28;20075;-70
2022/10/20 07:43:11;;;;;;;4.55;0.93;;;;;;;7.42;45.49;101681.81;5020523;28;20057;-71
2022/10/20 07:45:36;;;;;;;4.05;1.33;;;;;;;7.91;44.54;101690.63;5038874;28;20473;-71
2022/10/20 07:48:03;;;;;;;3.40;1.02;;;;;;;8.34;43.30;101687.34;5039136;28;20041;-71
2022/10/20 07:50:28;;;;;;;3.15;1.30;;;;;;;7.72;44.02;101683.13;5021944;28;20033;-70
2022/10/20 07:52:54;;;;;;;7.57;1.13;;;;;;;7.67;44.79;101679.72;5020034;28;20568;-70
2022/10/20 07:55:20;;;;;;;4.40;1.95;;;;;;;8.41;43.38;101688.09;5040729;28;20035;-71
2022/10/20 07:57:46;;;;;;;2.92;0.80;;;;;;;8.84;42.24;101685.53;5017931;28;20247;-71
2022/10/20 08:00:12;;;;;;;2.13;0.93;;;;;;;9.17;41.60;101670.09;5040157;28;20075;-71
2022/10/20 08:02:39;;;;;;;2.58;1.58;;;;;;;8.76;41.92;101669.19;5036476;28;20465;-71
2022/10/20 08:05:06;;;;;;;3.20;1.15;;;;;;;8.97;41.44;101668.75;5040444;28;20125;-71
2022/10/20 08:07:32;;;;;;;4.15;1.33;;;;;;;8.21;43.02;101662.38;5004525;28;20087;-71
2022/10/20 08:09:57;;;;;;;2.03;0.93;;;;;;;7.81;43.85;101660.44;4999759;28;20045;-71
2022/10/20 08:12:23;;;;;;;1.63;0.65;;;;;;;8.60;42.92;101684.22;5034387;28;20051;-71
2022/10/20 08:14:50;;;;;;;2.03;1.20;;;;;;;8.34;42.86;101677.75;5018174;28;20041;-71
2022/10/20 08:17:16;;;;;;;4.47;1.13;;;;;;;7.70;44.11;101671.88;5038451;28;20110;-70
2022/10/20 08:19:41;;;;;;;2.15;0.90;;;;;;;7.71;44.69;101688.34;5000923;28;20110;-71
2022/10/20 08:22:07;;;;;;;2.95;1.42;;;;;;;7.51;45.53;101688.59;5020905;28;20056;-71
2022/10/20 08:24:32;;;;;;;3.42;0.80;;;;;;;7.74;44.57;101704.78;5008935;28;20127;-71
2022/10/20 08:27:00;;;;;;;2.13;0.70;;;;;;;7.66;44.93;101698.81;5037682;28;20037;-71
2022/10/20 08:29:25;;;;;;;3.22;0.98;;;;;;;7.97;44.41;101689.69;5039001;28;20041;-71
2022/10/20 08:31:51;;;;;;;1.80;0.88;;;;;;;7.55;45.33;101679.91;5033853;28;20041;-70
2022/10/20 08:34:16;;;;;;;2.65;1.42;;;;;;;7.30;45.67;101684.56;5038648;28;20017;-72
2022/10/20 08:36:41;;;;;;;2.97;1.10;;;;;;;7.36;46.06;101674.06;5018617;28;20834;-70
2022/10/20 08:39:07;;;;;;;9.50;1.30;;;;;;;7.48;45.69;101668.69;5016402;28;20033;-71
2022/10/20 08:41:38;;;;;;;4.10;0.85;;;;;;;7.98;44.80;101661.03;5037171;28;20056;-71
2022/10/20 08:44:06;;;;;;;2.65;0.93;;;;;;;7.30;45.55;101677.59;5015880;28;20221;-71
2022/10/20 08:46:35;;;;;;;4.97;1.55;;;;;;;6.93;47.59;101663.34;5001828;28;20111;-71
2022/10/20 08:49:02;;;;;;;2.08;1.13;;;;;;;7.52;46.39;101648.69;5037156;28;20520;-72
2022/10/20 08:51:32;;;;;;;9.70;1.75;;;;;;;8.00;45.50;101637.56;5019492;28;20116;-70
2022/10/20 08:54:00;;;;;;;4.03;1.15;;;;;;;8.00;45.23;101632.34;5036572;28;20044;-71
2022/10/20 08:56:29;;;;;;;3.65;1.00;;;;;;;7.53;45.66;101625.28;5037825;28;20021;-71
2022/10/20 08:58:55;;;;;;;2.60;1.30;;;;;;;7.12;47.05;101615.47;4995744;28;20041;-72
2022/10/20 09:01:23;;;;;;;5.55;2.30;;;;;;;7.04;47.64;101609.50;5038488;28;20023;-71
2022/10/20 09:03:54;;;;;;;3.80;1.40;;;;;;;6.77;47.93;101606.38;5017351;28;20440;-72
2022/10/20 09:06:19;;;;;;;5.68;1.65;;;;;;;6.70;48.03;101622.91;5036941;28;20119;-70
2022/10/20 09:08:46;;;;;;;2.65;1.67;;;;;;;6.59;48.46;101617.00;5034371;28;20127;-70
2022/10/20 09:11:23;;;;;;;2.22;1.38;;;;;;;6.57;48.63;101626.53;5010889;28;20152;-70
2022/10/20 09:13:48;;;;;;;3.85;1.60;;;;;;;6.83;47.93;101603.69;5017528;28;20055;-72
2022/10/20 09:16:36;;;;;;;5.03;1.33;;;;;;;7.15;47.51;101596.34;5037879;28;20052;-71
2022/10/20 09:19:04;;;;;;;4.07;1.98;;;;;;;7.14;47.37;101603.31;5019415;28;20081;-72
2022/10/20 09:21:31;;;;;;;4.93;1.90;;;;;;;7.09;47.89;101595.56;5036342;28;20040;-71
2022/10/20 09:24:03;;;;;;;3.88;1.75;;;;;;;7.16;47.66;101592.88;5003257;28;20049;-71
2022/10/20 09:26:41;;;;;;;3.47;1.45;;;;;;;7.17;47.84;101587.66;5018223;28;20044;-71
2022/10/20 09:29:20;;;;;;;5.18;1.60;;;;;;;7.07;48.29;101575.69;5019287;28;20610;-71
2022/10/20 09:31:51;;;;;;;5.78;1.58;;;;;;;7.23;47.93;101569.38;5017069;28;20040;-70
2022/10/20 09:34:30;;;;;;;8.13;2.05;;;;;;;7.73;46.98;101566.88;5037631;28;20412;-71
2022/10/20 09:37:08;;;;;;;3.15;1.88;;;;;;;7.25;47.85;101565.00;5036216;28;20103;-71
2022/10/20 09:39:46;;;;;;;3.25;1.85;;;;;;;7.18;47.98;101559.94;5033342;28;20052;-71
2022/10/20 09:42:15;;;;;;;5.55;2.67;;;;;;;7.81;46.82;101559.78;5018855;28;20231;-71
2022/10/20 09:44:52;;;;;;;4.25;1.70;;;;;;;7.59;47.70;101556.69;5017395;28;20040;-71
2022/10/20 09:47:21;;;;;;;3.40;1.75;;;;;;;7.81;47.06;101538.97;5037257;28;20040;-71
2022/10/20 09:49:53;;;;;;;10.23;2.35;;;;;;;8.03;47.08;101533.38;5034717;28;20033;-71
2022/10/20 09:52:29;;;;;;;7.05;2.10;;;;;;;8.41;45.90;101526.56;5018177;28;20493;-71
2022/10/20 09:55:00;;;;;;;3.08;1.98;;;;;;;7.87;46.60;101535.38;5036100;28;20047;-71
2022/10/20 09:57:27;;;;;;;3.28;1.88;;;;;;;7.99;46.69;101547.34;5036682;28;20154;-71
2022/10/20 09:59:54;;;;;;;5.00;1.90;;;;;;;8.17;46.21;101556.56;5033366;28;21900;-71
2022/10/20 10:02:19;;;;;;;5.30;2.45;;;;;;;7.75;47.16;101565.09;5036660;28;20076;-71
2022/10/20 10:04:47;;;;;;;3.88;2.20;;;;;;;7.75;47.15;101554.69;5034119;28;20074;-71
2022/10/20 10:07:25;;;;;;;4.18;2.33;;;;;;;7.90;46.78;101558.78;5018648;28;20536;-71
2022/10/20 10:10:20;;;;;;;7.53;2.45;;;;;;;8.22;46.43;101550.34;5006856;28;20380;-71
2022/10/20 10:12:54;;;;;;;6.22;2.40;;;;;;;8.23;46.43;101530.41;5001605;28;20044;-71
2022/10/20 10:15:33;;;;;;;4.13;2.42;;;;;;;8.52;46.05;101522.84;5036090;28;20041;-71
2022/10/20 10:17:59;;;;;;;4.78;1.90;;;;;;;8.60;45.79;101527.88;5020390;28;20048;-70
2022/10/20 10:20:33;;;;;;;2.10;1.80;;;;;;;8.62;45.83;101533.91;5010900;28;20413;-70
2022/10/20 10:23:26;;;;;;;3.38;1.92;;;;;;;9.27;44.45;101530.75;5037419;28;20272;-73
2022/10/20 10:25:52;;;;;;;6.05;3.95;;;;;;;9.47;43.76;101522.44;5018174;28;20124;-70
2022/10/20 10:28:30;;;;;;;4.07;2.50;;;;;;;9.16;44.42;101510.16;5019495;28;20387;-70
2022/10/20 10:31:16;;;;;;;4.15;2.33;;;;;;;9.21;44.17;101481.34;5020097;28;20435;-71
2022/10/20 10:33:42;;;;;;;7.43;3.63;;;;;;;9.13;45.01;101475.47;5038193;28;20077;-70
2022/10/20 10:36:28;;;;;;;3.55;2.28;;;;;;;9.67;43.90;101464.50;5041946;28;20071;-71
2022/10/20 10:38:55;;;;;;;3.63;2.40;;;;;;;9.27;44.44;101470.75;5039376;28;20047;-70
2022/10/20 10:41:45;;;;;;;4.93;2.65;;;;;;;9.25;44.61;101464.72;5022952;28;20607;-71
2022/10/20 10:44:28;;;;;;;5.13;3.00;;;;;;;9.58;44.11;101449.94;5022729;28;20048;-70
2022/10/20 10:47:19;;;;;;;6.22;3.13;;;;;;;9.43;44.71;101450.34;5038447;28;20502;-71
2022/10/20 10:50:08;;;;;;;12.43;3.53;;;;;;;9.82;44.09;101446.75;5040103;28;20032;-71
2022/10/20 10:52:52;;;;;;;8.75;3.15;;;;;;;9.86;43.65;101451.00;5038466;28;20051;-71
2022/10/20 10:55:25;;;;;;;7.03;3.05;;;;;;;9.89;43.88;101448.28;5022240;28;20493;-71
2022/10/20 10:58:19;;;;;;;4.25;2.40;;;;;;;10.07;43.91;101453.00;5020276;28;20132;-71
2022/10/20 11:01:07;;;;;;;5.07;3.05;;;;;;;10.13;43.65;101429.31;4997931;28;20032;-72
2022/10/20 11:04:23;;;;;;;5.22;2.90;;;;;;;9.99;44.47;101424.50;5037851;28;20044;-72
2022/10/20 11:07:14;;;;;;;5.55;3.63;;;;;;;10.12;43.80;101440.63;4979559;28;20055;-71
2022/10/20 11:10:12;;;;;;;7.35;3.53;;;;;;;10.31;43.45;101438.34;4999457;28;20389;-71
2022/10/20 11:13:08;;;;;;;5.88;3.38;;;;;;;9.98;43.88;101411.47;4999698;28;20476;-71
2022/10/20 11:16:11;;;;;;;5.82;3.58;;;;;;;10.35;43.89;101418.22;5019522;28;20028;-71
2022/10/20 11:18:47;;;;;;;5.35;4.00;;;;;;;10.58;43.18;101428.81;5036499;28;20106;-72
2022/10/20 11:21:24;;;;;;;5.63;3.67;;;;;;;10.38;43.87;101405.06;5004728;28;20032;-72
2022/10/20 11:23:52;;;;;;;6.25;3.83;;;;;;;9.98;43.94;101401.88;5036920;28;20123;-71
2022/10/20 11:26:31;;;;;;;7.22;3.63;;;;;;;10.30;44.37;101400.06;5041310;28;20512;-72
2022/10/20 11:28:59;;;;;;;6.18;3.72;;;;;;;10.51;43.97;101395.94;5003048;28;20037;-71
2022/10/20 11:31:40;;;;;;;7.45;4.15;;;;;;;9.85;44.38;101389.22;5040761;28;20028;-71
2022/10/20 11:34:12;;;;;;;8.68;3.65;;;;;;;10.02;44.31;101392.19;5025987;28;20045;-71
2022/10/20 11:36:41;;;;;;;;;;;;;;;9.97;44.46;101378.44;5028124;28;20035;-71
2022/10/20 11:39:25;;;;;;;4.25;3.72;;;;;;;10.19;43.66;101374.28;5023163;28;19920;-71
2022/10/20 11:41:55;;;;;;;8.60;4.63;;;;;;;10.15;43.84;101356.97;5037430;28;20459;-71
2022/10/20 11:44:29;;;;;;;7.15;4.60;;;;;;;10.19;44.18;101368.19;5013472;28;20021;-72
2022/10/20 11:47:12;;;;;;;15.43;5.07;;;;;;;10.49;43.75;101358.53;5038187;28;20063;-71